Time;durP1;ratioP1;P1;durP2;ratioP2;P2;SDS_P1;SDS_P2;PMS_P1;PMS_P2;Temp;Humidity;BMP_temperature;BMP_pressure;BME280_temperature;BME280_humidity;BME280_pressure;Samples;Min_cycle;Max_cycle;Signal;HPM_P1;HPM_P2
2021/01/13 00:01:49;;;;;;;0.80;0.60;;;21.30;50.00;;;;;;5035554;28;20311;-68
2021/01/13 00:04:14;;;;;;;0.90;0.60;;;21.30;50.00;;;;;;5035561;28;20176;-68
2021/01/13 00:06:40;;;;;;;0.90;0.80;;;21.30;50.00;;;;;;5035799;28;20662;-68
2021/01/13 00:09:05;;;;;;;1.27;0.70;;;21.30;50.00;;;;;;5035435;28;20704;-68
2021/01/13 00:11:31;;;;;;;0.90;0.60;;;21.20;50.00;;;;;;5035465;28;20168;-68
2021/01/13 00:13:57;;;;;;;1.10;0.70;;;21.20;50.00;;;;;;5035955;28;20167;-68
2021/01/13 00:16:22;;;;;;;0.80;0.70;;;21.20;50.00;;;;;;5035365;28;20195;-68
2021/01/13 00:18:49;;;;;;;1.10;0.70;;;21.20;50.00;;;;;;5035321;28;20207;-68
2021/01/13 00:21:16;;;;;;;0.80;0.57;;;21.20;50.00;;;;;;5035227;28;20199;-68
2021/01/13 00:23:45;;;;;;;0.80;0.60;;;21.20;50.00;;;;;;5035285;28;20432;-68
2021/01/13 00:26:24;;;;;;;1.10;0.60;;;21.20;50.00;;;;;;5035458;28;20386;-68
2021/01/13 00:28:50;;;;;;;0.90;0.60;;;21.20;50.00;;;;;;5035340;28;20441;-68
2021/01/13 00:31:17;;;;;;;1.00;0.70;;;21.20;50.00;;;;;;5034597;28;20456;-68
2021/01/13 00:33:49;;;;;;;0.90;0.60;;;21.20;50.00;;;;;;5033734;28;20418;-68
2021/01/13 00:36:28;;;;;;;1.10;0.73;;;21.20;50.00;;;;;;5035239;28;20921;-68
2021/01/13 00:38:54;;;;;;;0.90;0.67;;;21.20;50.00;;;;;;5034917;28;20441;-68
2021/01/13 00:41:20;;;;;;;1.00;0.70;;;21.20;50.00;;;;;;5033407;28;20977;-68
2021/01/13 00:43:49;;;;;;;0.80;0.60;;;21.10;50.00;;;;;;5033568;28;20663;-68
2021/01/13 00:46:15;;;;;;;1.07;0.60;;;21.20;50.10;;;;;;5034752;28;20259;-68
2021/01/13 00:48:41;;;;;;;0.90;0.60;;;21.10;50.50;;;;;;5035174;28;20989;-68
2021/01/13 00:51:06;;;;;;;0.90;0.60;;;21.10;50.00;;;;;;5033457;28;20210;-68
2021/01/13 00:53:32;;;;;;;0.80;0.63;;;21.20;50.00;;;;;;5034643;28;20175;-68
2021/01/13 00:55:58;;;;;;;0.97;0.77;;;21.20;50.00;;;;;;5034554;28;20210;-68
2021/01/13 00:58:23;;;;;;;1.00;0.60;;;21.10;49.90;;;;;;5034504;28;20693;-68
2021/01/13 01:00:50;;;;;;;0.80;0.53;;;21.10;49.90;;;;;;5034697;28;20206;-68
2021/01/13 01:03:17;;;;;;;0.80;0.60;;;21.10;49.90;;;;;;5034488;28;20198;-68
2021/01/13 01:05:43;;;;;;;0.90;0.73;;;21.10;50.00;;;;;;5033143;28;20432;-68
2021/01/13 01:08:08;;;;;;;0.90;0.60;;;21.10;50.00;;;;;;5034612;28;21016;-68
2021/01/13 01:10:34;;;;;;;0.80;0.70;;;21.10;50.00;;;;;;5034317;28;20175;-68
2021/01/13 01:13:00;;;;;;;1.17;0.70;;;21.10;50.00;;;;;;5034516;28;20152;-68
2021/01/13 01:15:26;;;;;;;0.93;0.70;;;21.10;50.00;;;;;;5034425;28;20521;-68
2021/01/13 01:17:52;;;;;;;0.80;0.60;;;21.10;50.00;;;;;;5034072;28;20803;-68
2021/01/13 01:20:18;;;;;;;1.00;0.67;;;21.10;50.00;;;;;;5034090;28;20556;-68
2021/01/13 01:22:57;;;;;;;1.00;0.60;;;21.10;50.10;;;;;;5034464;28;20857;-68
2021/01/13 01:25:24;;;;;;;0.80;0.60;;;21.10;50.10;;;;;;5034034;28;20690;-68
2021/01/13 01:27:51;;;;;;;1.00;0.73;;;21.10;50.10;;;;;;5033866;28;20418;-68
2021/01/13 01:30:17;;;;;;;0.80;0.57;;;21.10;50.10;;;;;;5033897;28;20406;-67
2021/01/13 01:32:44;;;;;;;0.70;0.50;;;21.00;50.00;;;;;;5034187;28;20419;-68
2021/01/13 01:35:11;;;;;;;0.80;0.60;;;21.00;50.10;;;;;;5033876;28;20818;-68
2021/01/13 01:37:37;;;;;;;0.80;0.63;;;21.00;50.10;;;;;;5033682;28;20434;-68
2021/01/13 01:40:05;;;;;;;0.90;0.67;;;21.00;50.10;;;;;;5033986;28;20395;-68
2021/01/13 01:42:30;;;;;;;1.53;0.80;;;21.00;50.10;;;;;;5032784;28;20462;-68
2021/01/13 01:44:56;;;;;;;0.80;0.60;;;21.00;50.10;;;;;;5033712;28;20399;-67
2021/01/13 01:47:51;;;;;;;1.20;0.77;;;21.00;50.10;;;;;;5033495;28;20664;-68
2021/01/13 01:50:22;;;;;;;1.10;0.60;;;21.00;50.10;;;;;;5015478;28;20418;-68
2021/01/13 01:53:01;;;;;;;0.97;0.70;;;21.00;50.10;;;;;;5033872;28;20457;-68
2021/01/13 01:55:32;;;;;;;1.10;0.70;;;21.00;50.10;;;;;;5033818;28;20387;-68
2021/01/13 01:58:04;;;;;;;0.90;0.60;;;21.00;50.00;;;;;;5032706;28;20441;-69
2021/01/13 02:00:30;;;;;;;1.30;0.93;;;21.00;50.00;;;;;;5033660;28;20758;-68
2021/01/13 02:03:06;;;;;;;0.97;0.60;;;21.00;50.00;;;;;;5033644;28;20437;-68
2021/01/13 02:05:34;;;;;;;0.80;0.60;;;21.10;50.00;;;;;;5033396;28;20379;-68
2021/01/13 02:08:04;;;;;;;0.90;0.60;;;21.10;50.00;;;;;;5033560;28;20831;-68
2021/01/13 02:10:29;;;;;;;0.80;0.60;;;21.00;50.00;;;;;;5033840;28;20414;-68
2021/01/13 02:13:06;;;;;;;1.00;0.67;;;21.00;50.00;;;;;;5033586;28;20774;-68
2021/01/13 02:15:32;;;;;;;0.80;0.60;;;21.00;49.90;;;;;;5033276;28;20201;-68
2021/01/13 02:18:03;;;;;;;0.80;0.60;;;21.00;50.00;;;;;;5033049;28;20454;-68
2021/01/13 02:20:31;;;;;;;0.80;0.60;;;21.00;50.00;;;;;;5033376;28;20395;-68
2021/01/13 02:23:08;;;;;;;0.80;0.60;;;21.00;49.90;;;;;;5033058;28;20406;-68
2021/01/13 02:25:55;;;;;;;1.00;0.60;;;21.10;50.00;;;;;;5033044;28;20418;-68
2021/01/13 02:28:25;;;;;;;0.90;0.60;;;21.00;50.00;;;;;;5033273;28;20433;-68
2021/01/13 02:31:02;;;;;;;0.80;0.50;;;21.00;50.00;;;;;;5033044;28;20501;-68
2021/01/13 02:33:40;;;;;;;1.10;0.70;;;21.00;50.00;;;;;;5033270;28;20390;-68
2021/01/13 02:36:47;;;;;;;0.80;0.60;;;21.00;50.00;;;;;;5033118;28;20398;-68
2021/01/13 02:39:18;;;;;;;0.70;0.50;;;21.00;50.00;;;;;;5032421;28;20525;-68
2021/01/13 02:41:46;;;;;;;0.80;0.50;;;20.90;50.00;;;;;;5032598;28;20515;-67
2021/01/13 02:44:12;;;;;;;0.80;0.67;;;20.90;50.00;;;;;;5031685;28;20777;-68
2021/01/13 02:46:56;;;;;;;1.10;0.50;;;20.90;50.60;;;;;;5033181;28;20924;-68
2021/01/13 02:49:29;;;;;;;0.80;0.60;;;21.00;50.10;;;;;;5032721;28;20429;-68
2021/01/13 02:52:01;;;;;;;1.00;0.67;;;20.90;50.00;;;;;;5033379;28;20494;-68
2021/01/13 02:54:27;;;;;;;0.80;0.60;;;20.90;50.00;;;;;;5036047;28;20405;-68
2021/01/13 02:56:55;;;;;;;1.00;0.70;;;20.90;50.00;;;;;;5036818;28;20493;-68
2021/01/13 02:59:22;;;;;;;1.10;0.70;;;20.90;50.00;;;;;;5036718;28;20194;-68
2021/01/13 03:01:49;;;;;;;1.00;0.60;;;20.90;50.10;;;;;;5036981;28;20499;-68
2021/01/13 03:04:15;;;;;;;0.90;0.60;;;20.90;50.10;;;;;;5036722;28;20406;-68
2021/01/13 03:06:43;;;;;;;1.03;0.60;;;20.90;50.00;;;;;;5036656;28;20398;-68
2021/01/13 03:09:10;;;;;;;1.00;0.60;;;20.90;50.10;;;;;;5036396;28;20438;-68
2021/01/13 03:11:37;;;;;;;0.80;0.53;;;20.90;50.10;;;;;;5035281;28;20417;-68
2021/01/13 03:14:17;;;;;;;0.80;0.60;;;20.90;50.10;;;;;;5036705;28;20766;-69
2021/01/13 03:17:02;;;;;;;0.80;0.60;;;20.90;50.00;;;;;;5036683;28;20405;-69
2021/01/13 03:19:52;;;;;;;0.90;0.60;;;20.90;50.00;;;;;;5036395;28;20462;-69
2021/01/13 03:22:23;;;;;;;0.90;0.60;;;20.90;50.00;;;;;;5036599;28;20548;-68
2021/01/13 03:25:03;;;;;;;1.07;0.70;;;20.90;50.00;;;;;;5036863;28;20387;-69
2021/01/13 03:27:33;;;;;;;1.00;0.60;;;20.90;50.00;;;;;;5036474;28;20430;-68
2021/01/13 03:30:02;;;;;;;0.90;0.60;;;20.90;50.00;;;;;;5036504;28;20477;-69
2021/01/13 03:33:04;;;;;;;0.83;0.60;;;20.90;50.00;;;;;;5036111;28;20398;-69
2021/01/13 03:35:40;;;;;;;0.90;0.67;;;20.90;50.00;;;;;;5013457;28;20916;-69
2021/01/13 03:38:17;;;;;;;1.53;0.70;;;20.90;50.00;;;;;;5036086;28;20888;-69
2021/01/13 03:40:45;;;;;;;1.00;0.70;;;20.90;50.10;;;;;;5035595;28;20501;-69
2021/01/13 03:43:22;;;;;;;0.80;0.60;;;20.90;50.00;;;;;;5034750;28;20429;-69
2021/01/13 03:45:54;;;;;;;0.80;0.60;;;20.90;50.00;;;;;;5035879;28;20505;-69
2021/01/13 03:48:47;;;;;;;0.70;0.50;;;20.90;50.00;;;;;;5036264;28;20480;-69
2021/01/13 03:51:39;;;;;;;1.00;0.60;;;20.90;50.00;;;;;;5034745;28;20444;-69
2021/01/13 03:54:07;;;;;;;0.90;0.60;;;20.90;50.00;;;;;;5035811;28;20398;-69
2021/01/13 03:56:54;;;;;;;0.80;0.60;;;20.90;50.00;;;;;;5035944;28;20414;-69
2021/01/13 03:59:34;;;;;;;0.70;0.50;;;20.90;50.00;;;;;;5018240;28;20793;-68
2021/01/13 04:02:03;;;;;;;0.80;0.60;;;20.90;50.00;;;;;;5036037;28;20442;-69
2021/01/13 04:04:48;;;;;;;0.80;0.57;;;20.90;50.00;;;;;;5035338;28;20410;-69
2021/01/13 04:07:15;;;;;;;1.10;0.60;;;20.90;50.00;;;;;;5035487;28;20402;-69
2021/01/13 04:09:41;;;;;;;0.80;0.60;;;20.90;50.10;;;;;;5035793;28;20398;-69
2021/01/13 04:12:12;;;;;;;0.80;0.57;;;20.90;50.10;;;;;;5035736;28;20410;-69
2021/01/13 04:14:51;;;;;;;0.80;0.60;;;20.90;50.00;;;;;;5035446;28;20433;-70
2021/01/13 04:17:17;;;;;;;0.80;0.60;;;20.90;50.00;;;;;;5035315;28;20408;-69
2021/01/13 04:19:44;;;;;;;0.80;0.60;;;20.90;50.00;;;;;;5035310;28;20410;-69
2021/01/13 04:22:14;;;;;;;1.00;0.50;;;20.90;50.00;;;;;;5035171;28;20548;-69
2021/01/13 04:24:42;;;;;;;0.90;0.57;;;20.90;50.00;;;;;;5035270;28;20406;-68
2021/01/13 04:27:10;;;;;;;0.70;0.50;;;20.90;50.00;;;;;;5035120;28;20437;-68
2021/01/13 04:29:36;;;;;;;1.00;0.60;;;20.90;50.00;;;;;;5035451;28;20944;-69
2021/01/13 04:32:03;;;;;;;0.97;0.60;;;20.90;50.00;;;;;;5034107;28;20418;-69
2021/01/13 04:34:30;;;;;;;0.80;0.60;;;20.90;50.00;;;;;;5035060;28;20942;-69
2021/01/13 04:36:57;;;;;;;1.03;0.60;;;20.90;50.00;;;;;;5035105;28;20421;-69
2021/01/13 04:39:25;;;;;;;1.13;0.77;;;20.80;50.00;;;;;;5034864;28;20943;-69
2021/01/13 04:42:12;;;;;;;0.80;0.50;;;20.90;50.10;;;;;;5034822;28;20552;-69
2021/01/13 04:44:55;;;;;;;0.90;0.70;;;20.90;50.10;;;;;;5035191;28;20882;-69
2021/01/13 04:47:35;;;;;;;0.80;0.57;;;20.90;50.10;;;;;;5034761;28;20386;-69
2021/01/13 04:50:02;;;;;;;1.00;0.70;;;20.80;50.10;;;;;;5034974;28;20394;-69
2021/01/13 04:52:31;;;;;;;0.90;0.60;;;20.80;50.60;;;;;;5034775;28;20411;-69
2021/01/13 04:54:59;;;;;;;0.80;0.60;;;20.80;50.00;;;;;;5034612;28;20441;-69
2021/01/13 04:58:02;;;;;;;0.97;0.70;;;20.80;50.00;;;;;;5034545;28;20486;-69
2021/01/13 05:00:52;;;;;;;0.70;0.50;;;20.80;50.00;;;;;;5015405;28;20426;-69
2021/01/13 05:03:39;;;;;;;0.80;0.60;;;20.80;50.00;;;;;;5034863;28;20776;-69
2021/01/13 05:06:13;;;;;;;0.80;0.60;;;20.80;50.10;;;;;;5034368;28;20406;-69
2021/01/13 05:08:40;;;;;;;0.70;0.50;;;20.70;50.10;;;;;;5034310;28;20528;-69
2021/01/13 05:11:12;;;;;;;0.80;0.53;;;20.70;50.10;;;;;;5034330;28;20406;-69
2021/01/13 05:13:41;;;;;;;0.80;0.60;;;20.70;50.10;;;;;;5034194;28;20415;-69
2021/01/13 05:16:13;;;;;;;0.80;0.60;;;20.70;50.10;;;;;;5034495;28;20433;-69
2021/01/13 05:18:54;;;;;;;0.70;0.50;;;20.80;50.10;;;;;;5034251;28;20810;-69
2021/01/13 05:21:25;;;;;;;0.70;0.50;;;20.80;50.10;;;;;;5034022;28;20458;-69
2021/01/13 05:23:55;;;;;;;0.80;0.50;;;20.70;50.00;;;;;;5032756;28;20422;-68
2021/01/13 05:26:26;;;;;;;0.80;0.50;;;20.70;50.00;;;;;;5034341;28;20744;-69
2021/01/13 05:29:30;;;;;;;0.80;0.50;;;20.80;50.10;;;;;;5034056;28;20429;-68
2021/01/13 05:31:59;;;;;;;0.80;0.60;;;20.80;50.10;;;;;;5032172;28;20781;-69
2021/01/13 05:34:29;;;;;;;0.80;0.63;;;20.70;50.00;;;;;;5034059;28;20402;-69
2021/01/13 05:37:24;;;;;;;0.80;0.60;;;20.70;50.10;;;;;;5033912;28;20889;-69
2021/01/13 05:39:50;;;;;;;0.90;0.60;;;20.70;50.00;;;;;;5034357;28;20734;-68
2021/01/13 05:42:18;;;;;;;0.90;0.60;;;20.70;50.00;;;;;;5033709;28;20469;-69
2021/01/13 05:44:45;;;;;;;1.00;0.80;;;20.80;50.10;;;;;;5033739;28;20966;-69
2021/01/13 05:47:43;;;;;;;0.80;0.60;;;20.80;50.00;;;;;;5033867;28;20788;-68
2021/01/13 05:50:09;;;;;;;0.80;0.50;;;20.80;49.90;;;;;;5033673;28;20391;-69
2021/01/13 05:52:36;;;;;;;0.80;0.50;;;20.80;50.00;;;;;;5033608;28;20928;-69
2021/01/13 05:55:04;;;;;;;0.80;0.60;;;20.80;49.90;;;;;;5033743;28;20415;-68
2021/01/13 05:57:30;;;;;;;0.80;0.53;;;20.90;49.90;;;;;;5033338;28;20777;-68
2021/01/13 05:59:57;;;;;;;0.80;0.60;;;20.90;49.90;;;;;;5033782;28;20437;-68
2021/01/13 06:02:28;;;;;;;0.80;0.60;;;20.90;49.80;;;;;;5033342;28;20639;-67
2021/01/13 06:05:03;;;;;;;0.90;0.60;;;20.90;49.90;;;;;;5033654;28;20423;-67
2021/01/13 06:07:30;;;;;;;0.90;0.50;;;20.90;49.80;;;;;;5033279;28;20461;-67
2021/01/13 06:09:57;;;;;;;0.87;0.70;;;20.90;49.80;;;;;;5033359;28;20985;-68
2021/01/13 06:12:25;;;;;;;0.80;0.60;;;20.90;49.70;;;;;;5033561;28;20939;-68
2021/01/13 06:14:52;;;;;;;0.80;0.60;;;20.90;49.70;;;;;;5033487;28;20403;-68
2021/01/13 06:17:26;;;;;;;0.70;0.50;;;21.00;49.80;;;;;;5033467;28;20406;-67
2021/01/13 06:19:53;;;;;;;1.00;0.70;;;21.00;49.80;;;;;;5033126;28;20410;-68
2021/01/13 06:22:28;;;;;;;0.70;0.50;;;21.00;49.70;;;;;;5033009;28;20479;-68
2021/01/13 06:25:00;;;;;;;0.80;0.60;;;21.00;49.70;;;;;;5033401;28;20390;-68
2021/01/13 06:27:50;;;;;;;0.70;0.50;;;21.00;49.70;;;;;;5032880;28;20383;-68
2021/01/13 06:30:25;;;;;;;0.80;0.60;;;21.00;49.70;;;;;;5033340;28;20387;-67
2021/01/13 06:32:53;;;;;;;0.70;0.50;;;21.00;49.70;;;;;;5033006;28;20430;-67
2021/01/13 06:35:40;;;;;;;0.87;0.67;;;21.00;49.70;;;;;;5033181;28;20417;-72
2021/01/13 06:38:36;;;;;;;1.10;0.60;;;21.00;49.70;;;;;;5033170;28;20438;-69
2021/01/13 06:41:03;;;;;;;0.80;0.60;;;21.10;49.60;;;;;;5014854;28;20606;-67
2021/01/13 06:43:28;;;;;;;1.10;0.70;;;21.10;49.60;;;;;;5032937;28;20429;-69
2021/01/13 06:45:55;;;;;;;0.80;0.53;;;21.10;49.60;;;;;;5033136;28;20484;-68
2021/01/13 06:48:25;;;;;;;0.80;0.60;;;21.10;49.50;;;;;;5033024;28;20265;-67
2021/01/13 06:50:59;;;;;;;0.90;0.53;;;21.10;49.50;;;;;;5032846;28;20425;-66
2021/01/13 06:53:36;;;;;;;0.70;0.50;;;21.20;49.60;;;;;;5033135;28;20901;-68
2021/01/13 06:56:10;;;;;;;0.80;0.50;;;21.20;49.50;;;;;;5032803;28;20390;-69
2021/01/13 06:58:37;;;;;;;1.10;0.70;;;21.10;49.40;;;;;;5032928;28;20517;-69
2021/01/13 07:01:04;;;;;;;0.80;0.60;;;21.20;49.50;;;;;;5032823;28;20870;-69
2021/01/13 07:03:32;;;;;;;0.80;0.50;;;21.20;49.50;;;;;;5032937;28;20791;-69
2021/01/13 07:06:09;;;;;;;0.80;0.57;;;21.20;49.50;;;;;;5032982;28;20417;-69
2021/01/13 07:08:35;;;;;;;0.90;0.60;;;21.20;49.50;;;;;;5031559;28;20541;-69
2021/01/13 07:11:01;;;;;;;1.00;0.60;;;21.20;49.50;;;;;;5032639;28;20423;-69
2021/01/13 07:13:28;;;;;;;0.80;0.50;;;21.20;49.50;;;;;;5031372;28;20417;-70
2021/01/13 07:15:58;;;;;;;0.80;0.60;;;21.20;49.40;;;;;;5032554;28;20250;-72
2021/01/13 07:18:24;;;;;;;0.77;0.50;;;21.20;49.40;;;;;;5032789;28;20476;-70
2021/01/13 07:20:50;;;;;;;1.47;0.60;;;21.20;49.50;;;;;;5032740;28;20462;-70
2021/01/13 07:23:17;;;;;;;0.80;0.60;;;21.20;49.40;;;;;;5031895;28;20206;-71
2021/01/13 07:25:48;;;;;;;0.80;0.53;;;21.30;49.50;;;;;;5032488;28;20398;-70
2021/01/13 07:28:14;;;;;;;1.00;0.60;;;21.30;49.50;;;;;;5032481;28;20832;-69
2021/01/13 07:30:41;;;;;;;0.80;0.60;;;21.30;49.50;;;;;;5032588;28;20501;-68
2021/01/13 07:33:14;;;;;;;0.90;0.70;;;21.20;50.00;;;;;;5032297;28;20501;-69
2021/01/13 07:35:48;;;;;;;0.80;0.60;;;21.30;49.50;;;;;;5032382;28;20411;-69
2021/01/13 07:38:18;;;;;;;1.57;0.60;;;21.30;49.50;;;;;;5032321;28;20432;-70
2021/01/13 07:41:05;;;;;;;0.77;0.57;;;21.30;49.50;;;;;;5033836;28;20446;-69
2021/01/13 07:43:39;;;;;;;0.80;0.60;;;21.30;49.50;;;;;;5036342;28;20874;-70
2021/01/13 07:46:16;;;;;;;0.80;0.50;;;21.30;49.50;;;;;;5035980;28;20402;-69
2021/01/13 07:48:56;;;;;;;0.70;0.50;;;21.20;49.40;;;;;;5035936;28;20436;-69
2021/01/13 07:51:32;;;;;;;0.80;0.50;;;21.30;49.50;;;;;;5035961;28;20398;-68
2021/01/13 07:54:27;;;;;;;0.80;0.50;;;21.30;49.50;;;;;;5035799;28;20812;-69
2021/01/13 07:56:56;;;;;;;0.77;0.60;;;21.30;49.50;;;;;;5031766;28;20422;-69
2021/01/13 07:59:36;;;;;;;0.70;0.50;;;21.30;49.60;;;;;;5035580;28;20442;-70
2021/01/13 08:02:35;;;;;;;0.80;0.50;;;21.30;49.60;;;;;;5035885;28;20503;-69
2021/01/13 08:05:44;;;;;;;0.80;0.60;;;21.30;49.60;;;;;;5035612;28;20399;-70
2021/01/13 08:08:11;;;;;;;0.90;0.60;;;21.20;49.50;;;;;;5035386;28;20453;-69
2021/01/13 08:10:41;;;;;;;0.80;0.60;;;21.30;49.60;;;;;;5035156;28;20417;-69
2021/01/13 08:13:25;;;;;;;0.70;0.50;;;21.30;49.60;;;;;;5035442;28;20406;-70
2021/01/13 08:16:06;;;;;;;0.80;0.60;;;21.30;49.60;;;;;;5035634;28;20410;-68
2021/01/13 08:19:11;;;;;;;0.70;0.50;;;21.30;49.60;;;;;;5035276;28;20925;-70
2021/01/13 08:21:54;;;;;;;1.10;0.60;;;21.30;49.60;;;;;;5035224;28;20450;-69
2021/01/13 08:24:25;;;;;;;0.90;0.60;;;21.30;49.70;;;;;;5035755;28;20394;-68
2021/01/13 08:26:52;;;;;;;0.90;0.70;;;21.30;49.70;;;;;;5035549;28;20391;-69
2021/01/13 08:29:20;;;;;;;0.90;0.60;;;21.20;49.60;;;;;;5035310;28;21051;-68
2021/01/13 08:32:02;;;;;;;0.80;0.60;;;21.20;49.60;;;;;;5035052;28;20501;-69
2021/01/13 08:34:36;;;;;;;0.70;0.50;;;21.30;49.60;;;;;;5035345;28;20417;-67
2021/01/13 08:37:02;;;;;;;0.70;0.50;;;21.30;49.70;;;;;;5035320;28;20399;-66
2021/01/13 08:39:29;;;;;;;1.10;0.70;;;21.30;49.70;;;;;;5034901;28;20461;-66
2021/01/13 08:42:22;;;;;;;0.70;0.60;;;21.30;49.60;;;;;;5034757;28;20465;-66
2021/01/13 08:44:49;;;;;;;1.03;0.70;;;21.30;49.60;;;;;;5034860;28;20391;-65
2021/01/13 08:47:16;;;;;;;0.97;0.60;;;21.30;49.70;;;;;;5034782;28;20454;-73
2021/01/13 08:49:42;;;;;;;0.80;0.50;;;21.30;49.60;;;;;;5034672;28;20410;-68
2021/01/13 08:52:19;;;;;;;0.70;0.60;;;21.30;49.60;;;;;;5034918;28;20793;-68
2021/01/13 08:54:48;;;;;;;0.80;0.50;;;21.30;49.60;;;;;;5034685;28;20421;-68
2021/01/13 08:57:14;;;;;;;0.80;0.50;;;21.30;49.60;;;;;;5034705;28;20415;-67
2021/01/13 08:59:44;;;;;;;0.80;0.53;;;21.30;49.60;;;;;;5034685;28;20437;-70
2021/01/13 09:02:15;;;;;;;0.77;0.60;;;21.30;49.60;;;;;;5034673;28;21094;-66
2021/01/13 09:04:54;;;;;;;0.70;0.50;;;21.30;49.60;;;;;;5034770;28;20395;-67
2021/01/13 09:07:27;;;;;;;0.90;0.57;;;21.30;49.60;;;;;;5034626;28;20394;-66
2021/01/13 09:10:11;;;;;;;0.90;0.50;;;21.30;49.60;;;;;;5033072;28;20418;-66
2021/01/13 09:12:41;;;;;;;1.33;0.60;;;21.30;49.60;;;;;;5034376;28;20421;-66
2021/01/13 09:15:07;;;;;;;0.80;0.60;;;21.30;49.60;;;;;;5034866;28;20831;-67
2021/01/13 09:17:37;;;;;;;0.80;0.50;;;21.30;49.60;;;;;;5034454;28;20434;-66
2021/01/13 09:20:12;;;;;;;0.80;0.60;;;21.30;49.60;;;;;;5034232;28;20180;-66
2021/01/13 09:22:58;;;;;;;1.20;0.67;;;21.40;49.60;;;;;;5034226;28;20462;-65
2021/01/13 09:25:26;;;;;;;0.90;0.63;;;21.40;50.20;;;;;;5034120;28;20481;-71
2021/01/13 09:28:00;;;;;;;0.80;0.50;;;21.40;49.60;;;;;;5034025;28;20431;-70
2021/01/13 09:30:29;;;;;;;0.80;0.57;;;21.30;49.50;;;;;;5033972;28;20497;-69
2021/01/13 09:32:57;;;;;;;0.70;0.50;;;21.30;50.10;;;;;;5033976;28;20500;-69
2021/01/13 09:35:53;;;;;;;0.80;0.60;;;21.30;49.60;;;;;;5034207;28;20493;-70
2021/01/13 09:38:36;;;;;;;1.10;0.60;;;21.30;49.60;;;;;;5031577;28;20450;-70
2021/01/13 09:41:07;;;;;;;0.90;0.60;;;21.30;49.60;;;;;;5033615;28;20458;-69
2021/01/13 09:43:37;;;;;;;0.90;0.60;;;21.30;49.60;;;;;;5033922;28;20426;-69
2021/01/13 09:46:27;;;;;;;0.90;0.60;;;21.40;49.60;;;;;;5033691;28;20525;-69
2021/01/13 09:49:10;;;;;;;0.90;0.60;;;21.30;49.60;;;;;;5033597;28;20428;-69
2021/01/13 09:51:38;;;;;;;0.70;0.50;;;21.40;49.60;;;;;;5033610;28;20425;-69
2021/01/13 09:54:06;;;;;;;0.90;0.60;;;21.30;49.60;;;;;;5032349;28;20457;-71
2021/01/13 09:56:33;;;;;;;0.73;0.60;;;21.30;49.60;;;;;;5033588;28;20901;-70
2021/01/13 09:59:04;;;;;;;0.80;0.57;;;21.40;49.60;;;;;;5033370;28;20434;-69
2021/01/13 10:01:35;;;;;;;1.00;0.57;;;21.40;49.60;;;;;;5033673;28;20476;-70
2021/01/13 10:04:09;;;;;;;0.70;0.50;;;21.30;49.60;;;;;;5032801;28;20425;-69
2021/01/13 10:06:42;;;;;;;0.80;0.60;;;21.30;49.60;;;;;;5033648;28;20811;-69
2021/01/13 10:09:10;;;;;;;0.80;0.60;;;21.30;49.60;;;;;;5033191;28;20449;-69
2021/01/13 10:11:36;;;;;;;0.80;0.50;;;21.30;49.60;;;;;;5033608;28;20876;-69
2021/01/13 10:14:04;;;;;;;0.70;0.50;;;21.30;49.60;;;;;;5031981;28;20434;-69
2021/01/13 10:16:30;;;;;;;0.70;0.60;;;21.30;49.60;;;;;;5033499;28;20505;-69
2021/01/13 10:19:03;;;;;;;0.80;0.50;;;21.30;49.60;;;;;;5033149;28;20467;-68
2021/01/13 10:21:45;;;;;;;0.87;0.60;;;21.40;49.70;;;;;;5033325;28;20466;-68
2021/01/13 10:24:13;;;;;;;0.80;0.60;;;21.40;49.70;;;;;;5032755;28;20466;-69
2021/01/13 10:26:48;;;;;;;0.70;0.50;;;21.40;49.70;;;;;;5033099;28;20494;-69
2021/01/13 10:29:19;;;;;;;0.80;0.60;;;21.40;49.70;;;;;;5033263;28;20798;-69
2021/01/13 10:31:45;;;;;;;0.70;0.50;;;21.40;49.70;;;;;;5031784;28;20406;-70
2021/01/13 10:34:12;;;;;;;0.83;0.50;;;21.30;49.60;;;;;;5033341;28;20464;-70
2021/01/13 10:36:46;;;;;;;0.80;0.60;;;21.30;49.60;;;;;;5033001;28;20183;-66
2021/01/13 10:39:29;;;;;;;0.90;0.50;;;21.30;49.60;;;;;;5031688;28;20434;-68
2021/01/13 10:42:08;;;;;;;0.80;0.60;;;21.40;49.70;;;;;;5032807;28;20535;-68
2021/01/13 10:44:34;;;;;;;0.80;0.57;;;21.30;49.60;;;;;;5033325;28;20897;-68
2021/01/13 10:47:08;;;;;;;0.80;0.50;;;21.40;49.70;;;;;;5032908;28;20399;-70
2021/01/13 10:49:46;;;;;;;0.70;0.50;;;21.40;49.70;;;;;;5033001;28;20394;-68
2021/01/13 10:52:20;;;;;;;0.70;0.50;;;21.40;49.70;;;;;;5033091;28;20468;-69
2021/01/13 10:54:52;;;;;;;0.80;0.50;;;21.30;49.60;;;;;;5031837;28;20485;-70
2021/01/13 10:57:29;;;;;;;0.80;0.60;;;21.40;50.30;;;;;;5033186;28;20890;-71
2021/01/13 11:00:11;;;;;;;0.90;0.60;;;21.40;49.70;;;;;;5033070;28;20906;-70
2021/01/13 11:02:37;;;;;;;0.80;0.60;;;21.40;49.60;;;;;;5032984;28;20545;-68
2021/01/13 11:05:04;;;;;;;0.70;0.50;;;21.30;49.60;;;;;;5032963;28;20418;-69
2021/01/13 11:07:40;;;;;;;0.77;0.50;;;21.30;49.60;;;;;;5031670;28;20572;-71
2021/01/13 11:10:11;;;;;;;0.80;0.50;;;21.40;49.70;;;;;;5032707;28;20493;-68
2021/01/13 11:12:38;;;;;;;0.80;0.60;;;21.30;49.60;;;;;;5032894;28;20448;-70
2021/01/13 11:15:07;;;;;;;1.20;0.60;;;21.30;49.70;;;;;;5034843;28;20422;-70
2021/01/13 11:17:32;;;;;;;0.77;0.57;;;21.40;49.70;;;;;;5036637;28;20430;-68
2021/01/13 11:20:00;;;;;;;0.70;0.50;;;21.40;49.70;;;;;;5036530;28;20425;-66
2021/01/13 11:22:50;;;;;;;0.70;0.50;;;21.30;49.60;;;;;;5036676;28;20203;-68
2021/01/13 11:25:36;;;;;;;0.70;0.50;;;21.40;49.70;;;;;;5036693;28;20489;-67
2021/01/13 11:28:07;;;;;;;0.70;0.50;;;21.40;49.70;;;;;;5036958;28;20446;-65
2021/01/13 11:30:36;;;;;;;0.80;0.50;;;21.30;49.70;;;;;;5036161;28;20421;-65
2021/01/13 11:33:04;;;;;;;1.20;0.60;;;21.30;49.60;;;;;;5036256;28;20467;-66
2021/01/13 11:35:35;;;;;;;0.70;0.50;;;21.30;49.70;;;;;;5036455;28;20401;-66
2021/01/13 11:38:16;;;;;;;0.80;0.60;;;21.30;49.70;;;;;;5036367;28;20793;-66
2021/01/13 11:41:15;;;;;;;0.80;0.60;;;21.30;49.70;;;;;;5035950;28;20441;-66
2021/01/13 11:44:00;;;;;;;0.70;0.60;;;21.30;49.70;;;;;;5036081;28;20397;-65
2021/01/13 11:46:34;;;;;;;0.80;0.60;;;21.30;49.70;;;;;;5035947;28;20406;-66
2021/01/13 11:49:19;;;;;;;0.70;0.50;;;21.30;50.20;;;;;;5034612;28;20533;-70
2021/01/13 11:51:52;;;;;;;0.80;0.60;;;21.30;49.70;;;;;;5036083;28;20398;-69
2021/01/13 11:54:24;;;;;;;0.80;0.50;;;21.30;49.70;;;;;;5036120;28;20398;-70
2021/01/13 11:56:49;;;;;;;0.90;0.50;;;21.30;49.70;;;;;;5035998;28;20444;-70
2021/01/13 11:59:26;;;;;;;0.70;0.50;;;21.30;49.70;;;;;;5035668;28;20426;-69
2021/01/13 12:01:52;;;;;;;0.93;0.60;;;21.30;49.70;;;;;;5035865;28;20577;-68
2021/01/13 12:04:18;;;;;;;0.97;0.50;;;21.30;49.70;;;;;;5034425;28;20427;-69
2021/01/13 12:06:58;;;;;;;0.70;0.50;;;21.30;49.70;;;;;;5035599;28;20440;-70
2021/01/13 12:09:23;;;;;;;0.70;0.50;;;21.20;49.70;;;;;;5035412;28;20427;-65
2021/01/13 12:11:49;;;;;;;0.80;0.50;;;21.30;49.80;;;;;;5035457;28;20430;-68
2021/01/13 12:14:15;;;;;;;0.70;0.50;;;21.20;49.70;;;;;;5035413;28;20179;-68
2021/01/13 12:16:41;;;;;;;1.13;0.60;;;21.30;49.80;;;;;;5035418;28;20472;-65
2021/01/13 12:19:07;;;;;;;0.80;0.60;;;21.30;49.80;;;;;;5035260;28;20442;-69
2021/01/13 12:21:33;;;;;;;0.70;0.50;;;21.30;49.70;;;;;;5035443;28;20207;-64
2021/01/13 12:24:13;;;;;;;0.80;0.60;;;21.30;49.70;;;;;;5035294;28;20164;-70
2021/01/13 12:26:40;;;;;;;0.70;0.50;;;21.30;49.70;;;;;;5033313;28;20885;-69
2021/01/13 12:29:08;;;;;;;0.80;0.60;;;21.30;49.70;;;;;;5035249;28;20435;-70
2021/01/13 12:31:39;;;;;;;1.00;0.67;;;21.30;49.70;;;;;;5033864;28;20422;-67
2021/01/13 12:34:15;;;;;;;0.70;0.53;;;21.40;49.70;;;;;;5035402;28;20394;-66
2021/01/13 12:36:44;;;;;;;0.80;0.60;;;21.30;49.70;;;;;;5035330;28;20433;-65
2021/01/13 12:39:21;;;;;;;0.80;0.50;;;21.30;49.70;;;;;;5034897;28;20422;-66
2021/01/13 12:41:50;;;;;;;0.70;0.50;;;21.30;49.70;;;;;;5034801;28;21051;-66
2021/01/13 12:44:16;;;;;;;0.80;0.50;;;21.30;49.70;;;;;;5034280;28;20460;-66
2021/01/13 12:46:52;;;;;;;0.90;0.50;;;21.40;49.80;;;;;;5033921;28;20819;-65
2021/01/13 12:49:19;;;;;;;0.80;0.50;;;21.40;49.70;;;;;;5034178;28;20698;-66
2021/01/13 12:51:50;;;;;;;0.80;0.60;;;21.40;49.70;;;;;;5034106;28;20493;-66
2021/01/13 12:54:16;;;;;;;0.80;0.60;;;21.40;49.70;;;;;;5034392;28;20406;-65
2021/01/13 12:56:41;;;;;;;0.70;0.60;;;21.40;49.70;;;;;;5034417;28;20414;-66
2021/01/13 12:59:07;;;;;;;0.70;0.50;;;21.40;49.70;;;;;;5034626;28;20202;-67
2021/01/13 13:01:37;;;;;;;1.00;0.60;;;21.40;49.70;;;;;;5034459;28;20213;-66
2021/01/13 13:04:03;;;;;;;0.70;0.50;;;21.50;49.70;;;;;;5034730;28;20167;-66
2021/01/13 13:06:31;;;;;;;0.70;0.50;;;21.40;49.70;;;;;;5034448;28;20513;-66
2021/01/13 13:08:58;;;;;;;1.10;0.67;;;21.40;49.60;;;;;;5034760;28;20430;-66
2021/01/13 13:11:24;;;;;;;0.80;0.50;;;21.40;49.60;;;;;;5034607;28;20438;-66
2021/01/13 13:13:51;;;;;;;0.80;0.60;;;21.40;49.60;;;;;;5034290;28;20455;-65
2021/01/13 13:16:19;;;;;;;0.80;0.60;;;21.50;49.70;;;;;;5034257;28;20407;-67